sensor_id;sensor_type;location;lat;lon;timestamp;temperature;humidity
79024;DHT22;70306;44.764;37.688;2024-02-21T03:48:53;1.83;78.31
79024;DHT22;70306;44.764;37.688;2024-02-21T03:49:55;1.83;78.49
79024;DHT22;70306;44.764;37.688;2024-02-21T03:50:58;1.85;78.49
79024;DHT22;70306;44.764;37.688;2024-02-21T03:52:00;1.89;78.66
79024;DHT22;70306;44.764;37.688;2024-02-21T03:53:02;1.90;78.66
79024;DHT22;70306;44.764;37.688;2024-02-21T03:54:04;1.92;78.61
79024;DHT22;70306;44.764;37.688;2024-02-21T03:55:06;1.96;78.37
79024;DHT22;70306;44.764;37.688;2024-02-21T03:56:08;1.99;78.19
79024;DHT22;70306;44.764;37.688;2024-02-21T03:57:10;2.02;78.07
79024;DHT22;70306;44.764;37.688;2024-02-21T03:58:12;2.02;77.86
79024;DHT22;70306;44.764;37.688;2024-02-21T03:59:34;2.03;77.74
79024;DHT22;70306;44.764;37.688;2024-02-21T04:00:36;2.04;78.03
79024;DHT22;70306;44.764;37.688;2024-02-21T04:01:37;2.09;77.82
79024;DHT22;70306;44.764;37.688;2024-02-21T04:02:39;2.03;77.47
79024;DHT22;70306;44.764;37.688;2024-02-21T04:03:42;2.06;77.63
79024;DHT22;70306;44.764;37.688;2024-02-21T04:04:45;2.10;77.61
79024;DHT22;70306;44.764;37.688;2024-02-21T04:05:49;2.09;77.39
79024;DHT22;70306;44.764;37.688;2024-02-21T04:06:52;2.04;76.84
79024;DHT22;70306;44.764;37.688;2024-02-21T04:07:53;2.06;77.08
79024;DHT22;70306;44.764;37.688;2024-02-21T04:08:56;2.04;77.03
79024;DHT22;70306;44.764;37.688;2024-02-21T04:09:57;2.09;77.05
79024;DHT22;70306;44.764;37.688;2024-02-21T04:10:59;2.09;76.90
79024;DHT22;70306;44.764;37.688;2024-02-21T04:12:02;2.11;76.88
79024;DHT22;70306;44.764;37.688;2024-02-21T04:13:06;2.10;76.53
79024;DHT22;70306;44.764;37.688;2024-02-21T04:14:08;2.11;76.51
79024;DHT22;70306;44.764;37.688;2024-02-21T04:15:10;2.09;76.65
79024;DHT22;70306;44.764;37.688;2024-02-21T04:16:12;2.07;76.95
79024;DHT22;70306;44.764;37.688;2024-02-21T04:17:13;2.10;77.23
79024;DHT22;70306;44.764;37.688;2024-02-21T04:18:15;2.06;77.11
79024;DHT22;70306;44.764;37.688;2024-02-21T04:19:17;2.06;77.33
79024;DHT22;70306;44.764;37.688;2024-02-21T04:20:18;2.02;77.24
79024;DHT22;70306;44.764;37.688;2024-02-21T04:21:20;2.00;77.49
79024;DHT22;70306;44.764;37.688;2024-02-21T04:22:22;1.99;77.19
79024;DHT22;70306;44.764;37.688;2024-02-21T04:23:23;1.99;77.14
79024;DHT22;70306;44.764;37.688;2024-02-21T04:24:25;1.96;77.21
79024;DHT22;70306;44.764;37.688;2024-02-21T04:25:27;1.93;76.90
79024;DHT22;70306;44.764;37.688;2024-02-21T04:26:28;1.87;77.03
79024;DHT22;70306;44.764;37.688;2024-02-21T04:27:30;1.85;77.15
79024;DHT22;70306;44.764;37.688;2024-02-21T04:28:32;1.85;77.09
79024;DHT22;70306;44.764;37.688;2024-02-21T04:29:33;1.79;76.90
79024;DHT22;70306;44.764;37.688;2024-02-21T04:30:35;1.75;76.85
79024;DHT22;70306;44.764;37.688;2024-02-21T04:31:37;1.75;77.26
79024;DHT22;70306;44.764;37.688;2024-02-21T04:32:39;1.73;77.74
79024;DHT22;70306;44.764;37.688;2024-02-21T04:33:40;1.72;77.50
79024;DHT22;70306;44.764;37.688;2024-02-21T04:34:42;1.73;77.74
79024;DHT22;70306;44.764;37.688;2024-02-21T04:35:44;1.76;78.22
79024;DHT22;70306;44.764;37.688;2024-02-21T04:36:45;1.79;78.62
79024;DHT22;70306;44.764;37.688;2024-02-21T04:37:47;1.83;78.27
79024;DHT22;70306;44.764;37.688;2024-02-21T04:38:49;1.79;77.54
79024;DHT22;70306;44.764;37.688;2024-02-21T04:39:51;1.76;77.30
79024;DHT22;70306;44.764;37.688;2024-02-21T04:40:53;1.80;77.28
79024;DHT22;70306;44.764;37.688;2024-02-21T04:41:55;1.79;77.32
79024;DHT22;70306;44.764;37.688;2024-02-21T04:42:57;1.82;76.95
79024;DHT22;70306;44.764;37.688;2024-02-21T04:43:59;1.83;76.69
79024;DHT22;70306;44.764;37.688;2024-02-21T04:45:01;1.86;76.38
79024;DHT22;70306;44.764;37.688;2024-02-21T04:46:04;1.86;75.68
79024;DHT22;70306;44.764;37.688;2024-02-21T04:47:06;1.87;75.58
79024;DHT22;70306;44.764;37.688;2024-02-21T04:48:08;1.87;75.44
79024;DHT22;70306;44.764;37.688;2024-02-21T04:49:10;1.89;75.57
79024;DHT22;70306;44.764;37.688;2024-02-21T04:50:11;1.90;75.52
79024;DHT22;70306;44.764;37.688;2024-02-21T04:51:14;1.92;74.96
79024;DHT22;70306;44.764;37.688;2024-02-21T04:52:15;1.96;75.03
79024;DHT22;70306;44.764;37.688;2024-02-21T04:53:17;1.97;74.95
79024;DHT22;70306;44.764;37.688;2024-02-21T04:54:19;1.96;74.33
79024;DHT22;70306;44.764;37.688;2024-02-21T04:55:21;1.97;74.31
79024;DHT22;70306;44.764;37.688;2024-02-21T04:56:23;2.00;74.20
79024;DHT22;70306;44.764;37.688;2024-02-21T04:57:24;2.04;74.30
79024;DHT22;70306;44.764;37.688;2024-02-21T04:58:26;2.09;73.93
79024;DHT22;70306;44.764;37.688;2024-02-21T04:59:28;2.06;72.78
79024;DHT22;70306;44.764;37.688;2024-02-21T05:00:30;2.13;72.68
79024;DHT22;70306;44.764;37.688;2024-02-21T05:01:32;2.11;71.84
79024;DHT22;70306;44.764;37.688;2024-02-21T05:02:33;2.21;72.06
79024;DHT22;70306;44.764;37.688;2024-02-21T05:03:35;2.21;72.43
79024;DHT22;70306;44.764;37.688;2024-02-21T05:04:37;2.25;72.72
79024;DHT22;70306;44.764;37.688;2024-02-21T05:05:39;2.25;72.88
79024;DHT22;70306;44.764;37.688;2024-02-21T05:06:41;2.31;72.99
79024;DHT22;70306;44.764;37.688;2024-02-21T05:07:43;2.31;72.27
79024;DHT22;70306;44.764;37.688;2024-02-21T05:08:45;2.35;72.40
79024;DHT22;70306;44.764;37.688;2024-02-21T05:09:46;2.37;72.49
79024;DHT22;70306;44.764;37.688;2024-02-21T05:10:48;2.40;72.63
79024;DHT22;70306;44.764;37.688;2024-02-21T05:11:50;2.40;72.38
79024;DHT22;70306;44.764;37.688;2024-02-21T05:12:52;2.45;72.43
79024;DHT22;70306;44.764;37.688;2024-02-21T05:13:53;2.46;71.64
79024;DHT22;70306;44.764;37.688;2024-02-21T05:14:55;2.46;71.64
79024;DHT22;70306;44.764;37.688;2024-02-21T05:15:56;2.52;71.33
79024;DHT22;70306;44.764;37.688;2024-02-21T05:16:58;2.52;71.50
79024;DHT22;70306;44.764;37.688;2024-02-21T05:18:00;2.58;71.36
79024;DHT22;70306;44.764;37.688;2024-02-21T05:19:01;2.58;71.27
79024;DHT22;70306;44.764;37.688;2024-02-21T05:20:06;2.65;71.64
79024;DHT22;70306;44.764;37.688;2024-02-21T05:21:07;2.66;70.80
79024;DHT22;70306;44.764;37.688;2024-02-21T05:22:09;2.67;70.53
79024;DHT22;70306;44.764;37.688;2024-02-21T05:23:11;2.72;70.69
79024;DHT22;70306;44.764;37.688;2024-02-21T05:24:13;2.76;70.32
79024;DHT22;70306;44.764;37.688;2024-02-21T05:25:14;2.79;70.59
79024;DHT22;70306;44.764;37.688;2024-02-21T05:26:24;2.82;69.91
79024;DHT22;70306;44.764;37.688;2024-02-21T05:27:26;2.87;70.06
79024;DHT22;70306;44.764;37.688;2024-02-21T05:28:28;2.92;69.76
79024;DHT22;70306;44.764;37.688;2024-02-21T05:29:29;2.87;69.74
79024;DHT22;70306;44.764;37.688;2024-02-21T05:30:31;2.90;70.10
79024;DHT22;70306;44.764;37.688;2024-02-21T05:32:53;2.96;69.91
79024;DHT22;70306;44.764;37.688;2024-02-21T05:33:55;3.00;70.31
79024;DHT22;70306;44.764;37.688;2024-02-21T05:34:56;3.07;71.21
79024;DHT22;70306;44.764;37.688;2024-02-21T05:35:59;3.05;70.53
79024;DHT22;70306;44.764;37.688;2024-02-21T05:37:01;3.10;70.72
79024;DHT22;70306;44.764;37.688;2024-02-21T05:38:02;3.12;70.22
79024;DHT22;70306;44.764;37.688;2024-02-21T05:39:13;3.14;69.76
79024;DHT22;70306;44.764;37.688;2024-02-21T05:40:15;3.15;69.33
79024;DHT22;70306;44.764;37.688;2024-02-21T05:41:17;3.15;69.18
79024;DHT22;70306;44.764;37.688;2024-02-21T05:42:19;3.21;69.62
79024;DHT22;70306;44.764;37.688;2024-02-21T05:43:21;3.20;69.30
79024;DHT22;70306;44.764;37.688;2024-02-21T05:44:23;3.20;69.71
79024;DHT22;70306;44.764;37.688;2024-02-21T05:45:25;3.20;69.65
79024;DHT22;70306;44.764;37.688;2024-02-21T05:46:26;3.21;69.25
79024;DHT22;70306;44.764;37.688;2024-02-21T05:47:28;3.24;68.86
79024;DHT22;70306;44.764;37.688;2024-02-21T05:48:30;3.20;68.88
79024;DHT22;70306;44.764;37.688;2024-02-21T05:49:32;3.17;68.80
79024;DHT22;70306;44.764;37.688;2024-02-21T05:50:33;3.20;68.65
79024;DHT22;70306;44.764;37.688;2024-02-21T05:51:35;3.21;68.71
79024;DHT22;70306;44.764;37.688;2024-02-21T05:52:37;3.21;68.69
79024;DHT22;70306;44.764;37.688;2024-02-21T05:53:38;3.17;68.39
79024;DHT22;70306;44.764;37.688;2024-02-21T05:54:41;3.15;68.55
79024;DHT22;70306;44.764;37.688;2024-02-21T05:55:43;3.15;68.12
79024;DHT22;70306;44.764;37.688;2024-02-21T05:56:45;3.14;67.65
79024;DHT22;70306;44.764;37.688;2024-02-21T05:57:48;3.15;67.31
79024;DHT22;70306;44.764;37.688;2024-02-21T05:58:50;3.18;67.98
79024;DHT22;70306;44.764;37.688;2024-02-21T05:59:51;3.22;68.60
79024;DHT22;70306;44.764;37.688;2024-02-21T06:00:53;3.25;67.30
79024;DHT22;70306;44.764;37.688;2024-02-21T06:01:58;3.32;66.49
79024;DHT22;70306;44.764;37.688;2024-02-21T06:03:00;3.39;66.46
79024;DHT22;70306;44.764;37.688;2024-02-21T06:04:03;3.40;67.23
79024;DHT22;70306;44.764;37.688;2024-02-21T06:05:06;3.43;67.21
79024;DHT22;70306;44.764;37.688;2024-02-21T06:06:11;3.43;66.99
79024;DHT22;70306;44.764;37.688;2024-02-21T06:07:12;3.42;67.07
79024;DHT22;70306;44.764;37.688;2024-02-21T06:08:14;3.45;67.09
79024;DHT22;70306;44.764;37.688;2024-02-21T06:09:16;3.45;67.37
79024;DHT22;70306;44.764;37.688;2024-02-21T06:10:17;3.49;67.01
79024;DHT22;70306;44.764;37.688;2024-02-21T06:11:19;3.52;67.06
79024;DHT22;70306;44.764;37.688;2024-02-21T06:12:21;3.54;67.06
79024;DHT22;70306;44.764;37.688;2024-02-21T06:13:26;3.55;66.83
79024;DHT22;70306;44.764;37.688;2024-02-21T06:14:27;3.55;66.89
79024;DHT22;70306;44.764;37.688;2024-02-21T06:15:29;3.58;67.34
79024;DHT22;70306;44.764;37.688;2024-02-21T06:16:31;3.59;67.81
79024;DHT22;70306;44.764;37.688;2024-02-21T06:17:32;3.63;68.17
79024;DHT22;70306;44.764;37.688;2024-02-21T06:18:36;3.70;68.07
79024;DHT22;70306;44.764;37.688;2024-02-21T06:19:42;3.77;67.69
79024;DHT22;70306;44.764;37.688;2024-02-21T06:20:45;3.84;68.11
79024;DHT22;70306;44.764;37.688;2024-02-21T06:21:47;3.89;67.77
79024;DHT22;70306;44.764;37.688;2024-02-21T06:22:49;3.91;67.40
79024;DHT22;70306;44.764;37.688;2024-02-21T06:23:50;3.89;67.61
79024;DHT22;70306;44.764;37.688;2024-02-21T06:24:52;3.90;67.72
79024;DHT22;70306;44.764;37.688;2024-02-21T06:25:55;3.90;66.93
79024;DHT22;70306;44.764;37.688;2024-02-21T06:26:57;3.90;67.26
79024;DHT22;70306;44.764;37.688;2024-02-21T06:27:59;3.94;66.11
79024;DHT22;70306;44.764;37.688;2024-02-21T06:29:00;3.97;66.13
79024;DHT22;70306;44.764;37.688;2024-02-21T06:30:03;4.04;65.95
79024;DHT22;70306;44.764;37.688;2024-02-21T06:31:05;4.02;65.38
79024;DHT22;70306;44.764;37.688;2024-02-21T06:32:06;4.01;66.00
79024;DHT22;70306;44.764;37.688;2024-02-21T06:33:08;4.04;65.95
79024;DHT22;70306;44.764;37.688;2024-02-21T06:34:09;4.05;66.25
79024;DHT22;70306;44.764;37.688;2024-02-21T06:35:11;4.07;65.82
79024;DHT22;70306;44.764;37.688;2024-02-21T06:36:13;4.09;65.63
79024;DHT22;70306;44.764;37.688;2024-02-21T06:37:15;4.12;65.74
79024;DHT22;70306;44.764;37.688;2024-02-21T06:38:16;4.15;65.55
79024;DHT22;70306;44.764;37.688;2024-02-21T06:39:19;4.15;65.11
79024;DHT22;70306;44.764;37.688;2024-02-21T06:40:22;4.21;63.92
79024;DHT22;70306;44.764;37.688;2024-02-21T06:41:24;4.24;64.15
79024;DHT22;70306;44.764;37.688;2024-02-21T06:42:26;4.26;63.32
79024;DHT22;70306;44.764;37.688;2024-02-21T06:43:28;4.28;63.59
79024;DHT22;70306;44.764;37.688;2024-02-21T06:44:30;4.31;63.65
79024;DHT22;70306;44.764;37.688;2024-02-21T06:45:33;4.34;63.64
79024;DHT22;70306;44.764;37.688;2024-02-21T06:46:35;4.43;64.54
79024;DHT22;70306;44.764;37.688;2024-02-21T06:47:37;4.54;64.73
79024;DHT22;70306;44.764;37.688;2024-02-21T06:48:38;4.61;63.33
79024;DHT22;70306;44.764;37.688;2024-02-21T06:49:40;4.61;63.59
79024;DHT22;70306;44.764;37.688;2024-02-21T06:50:43;4.59;63.09
79024;DHT22;70306;44.764;37.688;2024-02-21T06:51:44;4.59;63.54
79024;DHT22;70306;44.764;37.688;2024-02-21T06:52:46;4.64;63.82
79024;DHT22;70306;44.764;37.688;2024-02-21T06:53:48;4.69;63.50
79024;DHT22;70306;44.764;37.688;2024-02-21T06:54:50;4.74;63.30
79024;DHT22;70306;44.764;37.688;2024-02-21T06:55:52;4.76;60.80
79024;DHT22;70306;44.764;37.688;2024-02-21T06:56:54;4.66;60.26
79024;DHT22;70306;44.764;37.688;2024-02-21T06:57:55;4.61;60.52
79024;DHT22;70306;44.764;37.688;2024-02-21T06:58:57;4.56;60.52
79024;DHT22;70306;44.764;37.688;2024-02-21T06:59:59;4.56;60.20
79024;DHT22;70306;44.764;37.688;2024-02-21T07:01:01;4.57;60.99
79024;DHT22;70306;44.764;37.688;2024-02-21T07:02:03;4.63;60.82
79024;DHT22;70306;44.764;37.688;2024-02-21T07:03:05;4.70;60.31
79024;DHT22;70306;44.764;37.688;2024-02-21T07:04:07;4.63;58.96
79024;DHT22;70306;44.764;37.688;2024-02-21T07:05:08;4.61;59.52
79024;DHT22;70306;44.764;37.688;2024-02-21T07:06:10;4.67;60.34
79024;DHT22;70306;44.764;37.688;2024-02-21T07:07:12;4.77;60.93
79024;DHT22;70306;44.764;37.688;2024-02-21T07:08:13;4.78;60.10
79024;DHT22;70306;44.764;37.688;2024-02-21T07:09:15;4.83;60.15
79024;DHT22;70306;44.764;37.688;2024-02-21T07:10:17;4.83;60.45
79024;DHT22;70306;44.764;37.688;2024-02-21T07:11:19;4.77;59.39
79024;DHT22;70306;44.764;37.688;2024-02-21T07:12:20;4.76;59.81
79024;DHT22;70306;44.764;37.688;2024-02-21T07:13:22;4.77;60.66
79024;DHT22;70306;44.764;37.688;2024-02-21T07:14:24;4.81;60.61
79024;DHT22;70306;44.764;37.688;2024-02-21T07:15:26;4.81;60.86
79024;DHT22;70306;44.764;37.688;2024-02-21T07:16:29;4.76;60.40
79024;DHT22;70306;44.764;37.688;2024-02-21T07:17:33;4.74;60.47
79024;DHT22;70306;44.764;37.688;2024-02-21T07:18:35;4.81;61.30
79024;DHT22;70306;44.764;37.688;2024-02-21T07:19:37;4.84;61.62
79024;DHT22;70306;44.764;37.688;2024-02-21T07:20:39;4.89;62.14
79024;DHT22;70306;44.764;37.688;2024-02-21T07:21:42;4.97;62.21
79024;DHT22;70306;44.764;37.688;2024-02-21T07:22:44;4.98;60.52
79024;DHT22;70306;44.764;37.688;2024-02-21T07:23:45;4.95;60.76
79024;DHT22;70306;44.764;37.688;2024-02-21T07:24:47;4.99;62.03
79024;DHT22;70306;44.764;37.688;2024-02-21T07:25:52;5.05;60.59
79024;DHT22;70306;44.764;37.688;2024-02-21T07:26:53;5.02;60.23
79024;DHT22;70306;44.764;37.688;2024-02-21T07:27:55;5.12;61.18
79024;DHT22;70306;44.764;37.688;2024-02-21T07:28:57;5.18;60.77
79024;DHT22;70306;44.764;37.688;2024-02-21T07:29:59;5.23;59.98
79024;DHT22;70306;44.764;37.688;2024-02-21T07:31:00;5.21;59.50
79024;DHT22;70306;44.764;37.688;2024-02-21T07:32:02;5.21;59.67
79024;DHT22;70306;44.764;37.688;2024-02-21T07:33:04;5.25;60.41
79024;DHT22;70306;44.764;37.688;2024-02-21T07:34:05;5.32;60.07
79024;DHT22;70306;44.764;37.688;2024-02-21T07:35:07;5.36;59.32
79024;DHT22;70306;44.764;37.688;2024-02-21T07:36:15;5.42;59.67
79024;DHT22;70306;44.764;37.688;2024-02-21T07:37:18;5.47;59.96
79024;DHT22;70306;44.764;37.688;2024-02-21T07:38:19;5.49;59.30
79024;DHT22;70306;44.764;37.688;2024-02-21T07:39:21;5.43;59.14
79024;DHT22;70306;44.764;37.688;2024-02-21T07:40:23;5.44;59.82
79024;DHT22;70306;44.764;37.688;2024-02-21T07:41:25;5.44;58.67
79024;DHT22;70306;44.764;37.688;2024-02-21T07:42:27;5.51;58.45
79024;DHT22;70306;44.764;37.688;2024-02-21T07:43:30;5.53;58.94
79024;DHT22;70306;44.764;37.688;2024-02-21T07:44:32;5.61;58.95
79024;DHT22;70306;44.764;37.688;2024-02-21T07:45:33;5.61;58.15
79024;DHT22;70306;44.764;37.688;2024-02-21T07:46:35;5.61;58.04
79024;DHT22;70306;44.764;37.688;2024-02-21T07:47:37;5.66;58.92
79024;DHT22;70306;44.764;37.688;2024-02-21T07:48:41;5.68;58.74
79024;DHT22;70306;44.764;37.688;2024-02-21T07:49:46;5.68;59.04
79024;DHT22;70306;44.764;37.688;2024-02-21T07:50:51;5.71;58.36
79024;DHT22;70306;44.764;37.688;2024-02-21T07:51:52;5.66;58.22
79024;DHT22;70306;44.764;37.688;2024-02-21T07:52:54;5.71;58.97
79024;DHT22;70306;44.764;37.688;2024-02-21T07:53:56;5.70;57.82
79024;DHT22;70306;44.764;37.688;2024-02-21T07:54:57;5.61;58.13
79024;DHT22;70306;44.764;37.688;2024-02-21T07:55:59;5.64;58.29
79024;DHT22;70306;44.764;37.688;2024-02-21T07:57:01;5.67;58.64
79024;DHT22;70306;44.764;37.688;2024-02-21T07:58:04;5.74;58.31
79024;DHT22;70306;44.764;37.688;2024-02-21T07:59:05;5.79;58.39
79024;DHT22;70306;44.764;37.688;2024-02-21T08:00:07;5.73;58.29
79024;DHT22;70306;44.764;37.688;2024-02-21T08:01:21;5.73;58.59
79024;DHT22;70306;44.764;37.688;2024-02-21T08:02:23;5.78;58.81
79024;DHT22;70306;44.764;37.688;2024-02-21T08:03:25;5.78;58.43
79024;DHT22;70306;44.764;37.688;2024-02-21T08:04:27;5.83;58.56
79024;DHT22;70306;44.764;37.688;2024-02-21T08:05:29;5.92;59.06
79024;DHT22;70306;44.764;37.688;2024-02-21T08:06:31;5.99;58.79
79024;DHT22;70306;44.764;37.688;2024-02-21T08:07:33;5.95;57.80
79024;DHT22;70306;44.764;37.688;2024-02-21T08:08:34;5.87;57.53
79024;DHT22;70306;44.764;37.688;2024-02-21T08:09:36;5.84;58.25
79024;DHT22;70306;44.764;37.688;2024-02-21T08:10:39;5.92;58.70
79024;DHT22;70306;44.764;37.688;2024-02-21T08:11:41;6.01;59.10
79024;DHT22;70306;44.764;37.688;2024-02-21T08:12:42;6.02;57.13
79024;DHT22;70306;44.764;37.688;2024-02-21T08:13:47;6.06;58.41
79024;DHT22;70306;44.764;37.688;2024-02-21T08:14:49;6.05;57.71
79024;DHT22;70306;44.764;37.688;2024-02-21T08:15:54;6.05;57.99
79024;DHT22;70306;44.764;37.688;2024-02-21T08:16:55;5.99;57.79
79024;DHT22;70306;44.764;37.688;2024-02-21T08:17:57;5.98;58.14
79024;DHT22;70306;44.764;37.688;2024-02-21T08:19:06;6.03;59.48
79024;DHT22;70306;44.764;37.688;2024-02-21T08:20:08;6.12;59.59
79024;DHT22;70306;44.764;37.688;2024-02-21T08:21:10;6.18;57.89
79024;DHT22;70306;44.764;37.688;2024-02-21T08:22:12;6.20;57.82
79024;DHT22;70306;44.764;37.688;2024-02-21T08:23:18;6.25;57.18
79024;DHT22;70306;44.764;37.688;2024-02-21T08:24:20;6.25;57.51
79024;DHT22;70306;44.764;37.688;2024-02-21T08:25:24;6.23;57.46
79024;DHT22;70306;44.764;37.688;2024-02-21T08:26:26;6.28;57.43
79024;DHT22;70306;44.764;37.688;2024-02-21T08:27:31;6.28;57.42
79024;DHT22;70306;44.764;37.688;2024-02-21T08:28:33;6.32;57.84
79024;DHT22;70306;44.764;37.688;2024-02-21T08:29:35;6.32;57.76
79024;DHT22;70306;44.764;37.688;2024-02-21T08:30:37;6.37;58.11
79024;DHT22;70306;44.764;37.688;2024-02-21T08:31:39;6.41;58.37
79024;DHT22;70306;44.764;37.688;2024-02-21T08:32:41;6.46;58.46
79024;DHT22;70306;44.764;37.688;2024-02-21T08:33:43;6.43;57.04
79024;DHT22;70306;44.764;37.688;2024-02-21T08:34:48;6.37;56.15
79024;DHT22;70306;44.764;37.688;2024-02-21T08:35:50;6.36;57.15
79024;DHT22;70306;44.764;37.688;2024-02-21T08:36:52;6.38;57.07
79024;DHT22;70306;44.764;37.688;2024-02-21T08:37:53;6.44;57.38
79024;DHT22;70306;44.764;37.688;2024-02-21T08:38:55;6.50;57.28
79024;DHT22;70306;44.764;37.688;2024-02-21T08:39:56;6.58;58.03
79024;DHT22;70306;44.764;37.688;2024-02-21T08:40:58;6.61;57.89
79024;DHT22;70306;44.764;37.688;2024-02-21T08:42:00;6.65;58.02
79024;DHT22;70306;44.764;37.688;2024-02-21T08:43:02;6.68;58.09
79024;DHT22;70306;44.764;37.688;2024-02-21T08:44:04;6.68;58.18
79024;DHT22;70306;44.764;37.688;2024-02-21T08:45:07;6.64;57.87
79024;DHT22;70306;44.764;37.688;2024-02-21T08:46:08;6.65;58.43
79024;DHT22;70306;44.764;37.688;2024-02-21T08:47:10;6.72;58.72
79024;DHT22;70306;44.764;37.688;2024-02-21T08:48:12;6.80;57.40
79024;DHT22;70306;44.764;37.688;2024-02-21T08:49:14;6.75;57.20
79024;DHT22;70306;44.764;37.688;2024-02-21T08:50:16;6.75;56.91
79024;DHT22;70306;44.764;37.688;2024-02-21T08:51:18;6.75;56.16
79024;DHT22;70306;44.764;37.688;2024-02-21T08:52:20;6.78;57.00
79024;DHT22;70306;44.764;37.688;2024-02-21T08:53:21;6.88;57.23
79024;DHT22;70306;44.764;37.688;2024-02-21T08:54:23;6.89;56.06
79024;DHT22;70306;44.764;37.688;2024-02-21T08:55:25;6.91;56.38
79024;DHT22;70306;44.764;37.688;2024-02-21T08:56:27;6.95;57.55
79024;DHT22;70306;44.764;37.688;2024-02-21T08:57:29;7.05;56.07
79024;DHT22;70306;44.764;37.688;2024-02-21T08:58:30;7.08;56.10
79024;DHT22;70306;44.764;37.688;2024-02-21T08:59:32;7.02;56.32
79024;DHT22;70306;44.764;37.688;2024-02-21T09:00:34;7.08;55.88
79024;DHT22;70306;44.764;37.688;2024-02-21T09:01:36;7.10;56.31
79024;DHT22;70306;44.764;37.688;2024-02-21T09:02:40;7.16;57.85
79024;DHT22;70306;44.764;37.688;2024-02-21T09:03:47;7.27;58.31
79024;DHT22;70306;44.764;37.688;2024-02-21T09:04:49;7.30;56.75
79024;DHT22;70306;44.764;37.688;2024-02-21T09:05:50;7.31;57.07
79024;DHT22;70306;44.764;37.688;2024-02-21T09:06:52;7.40;56.48
79024;DHT22;70306;44.764;37.688;2024-02-21T09:07:54;7.40;55.58
79024;DHT22;70306;44.764;37.688;2024-02-21T09:09:02;7.28;55.12
79024;DHT22;70306;44.764;37.688;2024-02-21T09:10:10;7.28;56.27
79024;DHT22;70306;44.764;37.688;2024-02-21T09:11:12;7.27;55.25
79024;DHT22;70306;44.764;37.688;2024-02-21T09:12:13;7.30;55.18
79024;DHT22;70306;44.764;37.688;2024-02-21T09:13:16;7.28;55.68
79024;DHT22;70306;44.764;37.688;2024-02-21T09:14:18;7.37;55.48
79024;DHT22;70306;44.764;37.688;2024-02-21T09:15:20;7.41;55.33
79024;DHT22;70306;44.764;37.688;2024-02-21T09:16:21;7.48;55.85
79024;DHT22;70306;44.764;37.688;2024-02-21T09:17:27;7.54;54.72
79024;DHT22;70306;44.764;37.688;2024-02-21T09:18:30;7.55;55.20
79024;DHT22;70306;44.764;37.688;2024-02-21T09:19:32;7.57;54.82
79024;DHT22;70306;44.764;37.688;2024-02-21T09:20:37;7.62;55.82
79024;DHT22;70306;44.764;37.688;2024-02-21T09:21:38;7.72;55.78
79024;DHT22;70306;44.764;37.688;2024-02-21T09:22:40;7.74;55.08
79024;DHT22;70306;44.764;37.688;2024-02-21T09:23:42;7.81;55.01
79024;DHT22;70306;44.764;37.688;2024-02-21T09:24:44;7.82;55.34
79024;DHT22;70306;44.764;37.688;2024-02-21T09:25:46;7.92;54.99
79024;DHT22;70306;44.764;37.688;2024-02-21T09:26:48;7.88;54.30
79024;DHT22;70306;44.764;37.688;2024-02-21T09:27:51;7.92;54.47
79024;DHT22;70306;44.764;37.688;2024-02-21T09:28:58;7.99;53.46
79024;DHT22;70306;44.764;37.688;2024-02-21T09:29:59;8.05;53.66
79024;DHT22;70306;44.764;37.688;2024-02-21T09:31:01;8.09;53.62
79024;DHT22;70306;44.764;37.688;2024-02-21T09:32:03;8.09;54.35
79024;DHT22;70306;44.764;37.688;2024-02-21T09:33:05;8.14;54.73
79024;DHT22;70306;44.764;37.688;2024-02-21T09:34:07;8.22;53.56
79024;DHT22;70306;44.764;37.688;2024-02-21T09:35:08;8.29;52.95
79024;DHT22;70306;44.764;37.688;2024-02-21T09:36:11;8.41;54.13
79024;DHT22;70306;44.764;37.688;2024-02-21T09:37:13;8.44;53.18
79024;DHT22;70306;44.764;37.688;2024-02-21T09:38:14;8.44;53.83
79024;DHT22;70306;44.764;37.688;2024-02-21T09:39:16;8.48;52.65
79024;DHT22;70306;44.764;37.688;2024-02-21T09:40:19;8.42;52.45
79024;DHT22;70306;44.764;37.688;2024-02-21T09:41:25;8.41;52.89
79024;DHT22;70306;44.764;37.688;2024-02-21T09:42:39;8.40;53.05
79024;DHT22;70306;44.764;37.688;2024-02-21T09:43:44;8.44;53.46
79024;DHT22;70306;44.764;37.688;2024-02-21T09:44:50;8.51;52.04
79024;DHT22;70306;44.764;37.688;2024-02-21T09:45:55;8.59;53.19
79024;DHT22;70306;44.764;37.688;2024-02-21T09:47:03;8.62;51.18
79024;DHT22;70306;44.764;37.688;2024-02-21T09:49:21;8.64;52.27
79024;DHT22;70306;44.764;37.688;2024-02-21T09:50:30;8.66;51.66
79024;DHT22;70306;44.764;37.688;2024-02-21T09:51:34;8.72;51.23
79024;DHT22;70306;44.764;37.688;2024-02-21T09:52:36;8.75;50.66
79024;DHT22;70306;44.764;37.688;2024-02-21T09:53:40;8.76;50.57
79024;DHT22;70306;44.764;37.688;2024-02-21T09:54:43;8.72;50.81
79024;DHT22;70306;44.764;37.688;2024-02-21T09:55:49;8.73;50.95
79024;DHT22;70306;44.764;37.688;2024-02-21T09:56:54;8.73;50.52
79024;DHT22;70306;44.764;37.688;2024-02-21T09:57:58;8.85;51.47
79024;DHT22;70306;44.764;37.688;2024-02-21T09:59:01;9.00;50.82
79024;DHT22;70306;44.764;37.688;2024-02-21T10:00:09;9.04;51.73
79024;DHT22;70306;44.764;37.688;2024-02-21T10:01:15;9.10;51.74
79024;DHT22;70306;44.764;37.688;2024-02-21T10:02:17;9.13;51.66
79024;DHT22;70306;44.764;37.688;2024-02-21T10:03:19;9.11;50.06
79024;DHT22;70306;44.764;37.688;2024-02-21T10:04:24;9.23;51.47
79024;DHT22;70306;44.764;37.688;2024-02-21T10:05:26;9.28;50.11
79024;DHT22;70306;44.764;37.688;2024-02-21T10:06:28;9.34;50.49
79024;DHT22;70306;44.764;37.688;2024-02-21T10:07:30;9.32;48.34
79024;DHT22;70306;44.764;37.688;2024-02-21T10:08:33;9.21;48.88
79024;DHT22;70306;44.764;37.688;2024-02-21T10:09:35;9.27;51.11
79024;DHT22;70306;44.764;37.688;2024-02-21T10:10:55;9.28;49.58
79024;DHT22;70306;44.764;37.688;2024-02-21T10:12:10;9.34;50.81
79024;DHT22;70306;44.764;37.688;2024-02-21T10:13:42;9.39;51.07
79024;DHT22;70306;44.764;37.688;2024-02-21T10:14:46;9.41;49.06
79024;DHT22;70306;44.764;37.688;2024-02-21T10:16:08;9.24;49.01
79024;DHT22;70306;44.764;37.688;2024-02-21T10:17:16;9.21;49.20
79024;DHT22;70306;44.764;37.688;2024-02-21T10:18:19;9.30;49.60
79024;DHT22;70306;44.764;37.688;2024-02-21T10:19:21;9.41;50.62
79024;DHT22;70306;44.764;37.688;2024-02-21T10:20:23;9.49;50.96
79024;DHT22;70306;44.764;37.688;2024-02-21T10:21:24;9.52;49.97
79024;DHT22;70306;44.764;37.688;2024-02-21T10:22:26;9.55;50.47
79024;DHT22;70306;44.764;37.688;2024-02-21T10:23:40;9.52;49.93
79024;DHT22;70306;44.764;37.688;2024-02-21T10:24:42;9.52;49.13
79024;DHT22;70306;44.764;37.688;2024-02-21T10:25:43;9.62;49.02
79024;DHT22;70306;44.764;37.688;2024-02-21T10:26:47;9.72;49.96